createdAt,value
2022-08-21T08:47:04.238Z,1.62
2022-08-21T08:48:04.341Z,1.52
2022-08-21T08:49:12.288Z,1.52
2022-08-21T08:50:38.708Z,1.94
2022-08-21T08:51:41.669Z,1.94
2022-08-21T08:52:38.267Z,1.94
2022-08-21T08:53:39.827Z,1.87
2022-08-21T08:54:39.934Z,1.98
2022-08-21T08:55:39.977Z,1.84
2022-08-21T08:56:39.073Z,1.80
2022-08-21T08:57:41.000Z,1.84
2022-08-21T08:58:40.100Z,1.87
2022-08-21T08:59:41.253Z,1.55
2022-08-21T09:00:41.422Z,1.94
2022-08-21T09:01:41.412Z,1.87
2022-08-21T09:02:41.934Z,1.94
2022-08-21T09:03:42.026Z,1.73
2022-08-21T09:04:43.478Z,1.98
2022-08-21T09:05:43.083Z,1.62
2022-08-21T09:06:44.016Z,1.98
2022-08-21T09:07:43.927Z,1.98
2022-08-21T09:07:55.723Z,1.94
2022-08-21T09:08:55.595Z,1.98
2022-08-21T09:09:56.035Z,2.05
2022-08-21T09:10:56.474Z,1.69
2022-08-21T09:11:58.085Z,1.73
2022-08-21T09:12:57.519Z,2.09
2022-08-21T09:13:58.304Z,2.12
2022-08-21T09:14:58.967Z,2.09
2022-08-21T09:16:00.478Z,1.94
2022-08-21T09:17:01.039Z,1.98
2022-08-21T09:18:01.750Z,2.05
2022-08-21T09:19:01.515Z,2.12
2022-08-21T09:20:02.369Z,2.09
2022-08-21T09:21:02.954Z,2.05
2022-08-21T09:22:04.626Z,2.01
2022-08-21T09:23:05.403Z,2.05
2022-08-21T09:24:07.085Z,1.80
2022-08-21T09:25:05.490Z,2.09
2022-08-21T09:26:07.023Z,2.01
2022-08-21T09:27:06.430Z,2.05
2022-08-21T09:28:07.975Z,2.05
2022-08-21T09:29:08.642Z,2.09
2022-08-21T09:30:08.515Z,2.05
2022-08-21T09:30:17.731Z,2.09
2022-08-21T09:31:18.461Z,2.09
2022-08-21T09:32:19.754Z,2.12
2022-08-21T09:33:19.323Z,2.16
2022-08-21T09:34:19.927Z,2.26
2022-08-21T09:35:20.232Z,2.37
2022-08-21T09:36:20.469Z,2.41
2022-08-21T09:37:20.654Z,2.41
2022-08-21T09:38:21.686Z,2.48
2022-08-21T09:39:20.986Z,2.41
2022-08-21T09:40:22.542Z,2.44
2022-08-21T09:41:22.423Z,2.26
2022-08-21T09:42:24.367Z,2.62
2022-08-21T09:43:55.993Z,2.48
2022-08-21T09:44:57.702Z,2.62
2022-08-21T09:45:58.850Z,2.48
2022-08-21T09:46:57.831Z,2.48
2022-08-21T09:47:57.509Z,2.66
2022-08-21T09:48:58.987Z,2.51
2022-08-21T09:49:58.953Z,2.51
2022-08-21T09:50:59.608Z,2.48
2022-08-21T09:51:59.407Z,2.26
2022-08-21T09:53:00.466Z,2.19
2022-08-21T09:54:00.926Z,2.41
2022-08-21T09:55:01.832Z,2.44
2022-08-21T09:56:03.136Z,2.51
2022-08-21T09:57:04.098Z,2.51
2022-08-21T09:58:03.282Z,2.51
2022-08-21T09:59:04.480Z,2.55
2022-08-21T10:00:03.596Z,2.55
2022-08-21T10:01:04.374Z,2.58
2022-08-21T10:02:04.659Z,2.55
2022-08-21T10:03:06.646Z,2.58
2022-08-21T10:04:06.261Z,2.55
2022-08-21T10:05:07.388Z,2.55
2022-08-21T10:06:09.246Z,2.58
2022-08-21T10:06:17.163Z,2.55
2022-08-21T10:07:18.509Z,2.51
2022-08-21T10:08:18.896Z,2.51
2022-08-21T10:09:21.480Z,2.55
2022-08-21T10:10:18.928Z,2.66
2022-08-21T10:11:19.743Z,2.66
2022-08-21T10:12:21.630Z,2.69
2022-08-21T10:13:22.141Z,2.73
2022-08-21T10:14:21.782Z,2.73
2022-08-21T10:15:23.637Z,2.55
2022-08-21T10:16:24.123Z,2.55
2022-08-21T10:17:24.121Z,2.09
2022-08-21T10:18:24.914Z,2.16
2022-08-21T10:19:23.959Z,2.12
2022-08-21T10:20:24.764Z,2.51
2022-08-21T10:21:26.791Z,2.58
2022-08-21T10:22:26.418Z,2.44
2022-08-21T10:23:27.739Z,2.48
2022-08-21T10:24:30.913Z,2.48
2022-08-21T10:25:28.162Z,2.41
2022-08-21T10:26:29.103Z,2.51
2022-08-21T10:26:43.357Z,2.51
2022-08-21T10:27:43.445Z,2.66
2022-08-21T10:28:43.726Z,2.80
2022-08-21T10:29:44.580Z,2.80
2022-08-21T10:30:44.827Z,2.73
2022-08-21T10:31:45.032Z,2.73
2022-08-21T10:32:45.789Z,2.73
2022-08-21T10:33:46.059Z,2.73
2022-08-21T10:34:46.338Z,2.80
2022-08-21T10:35:47.129Z,2.69
2022-08-21T10:36:47.547Z,2.73
2022-08-21T10:37:48.161Z,2.69
2022-08-21T10:39:07.062Z,2.73
2022-08-21T10:39:49.533Z,2.62
2022-08-21T10:40:49.916Z,2.73
2022-08-21T10:42:32.985Z,2.73
2022-08-21T10:43:34.565Z,2.73
2022-08-21T10:44:32.535Z,2.80
2022-08-21T10:45:33.871Z,2.80
2022-08-21T10:46:34.377Z,2.51
2022-08-21T10:47:34.438Z,2.73
2022-08-21T10:48:35.408Z,2.73
2022-08-21T10:49:36.192Z,2.83
2022-08-21T10:50:36.471Z,2.73
2022-08-21T10:51:37.019Z,2.73
2022-08-21T10:52:37.641Z,2.73
2022-08-21T10:53:38.163Z,2.73
2022-08-21T10:54:38.828Z,2.80
2022-08-21T10:55:40.165Z,2.73
2022-08-21T11:15:29.255Z,2.73
2022-08-21T11:16:15.136Z,2.73
2022-08-21T11:17:19.152Z,2.69
2022-08-21T11:18:16.066Z,2.73
2022-08-21T11:19:17.915Z,2.73
2022-08-21T11:20:17.590Z,2.69
2022-08-21T11:21:17.898Z,2.69
2022-08-21T11:22:19.055Z,2.73
2022-08-21T11:23:19.754Z,2.73
2022-08-21T11:24:20.212Z,2.80
2022-08-21T11:25:20.446Z,2.73
2022-08-21T11:26:20.965Z,2.66
2022-08-21T11:27:20.604Z,2.73
2022-08-21T11:28:20.583Z,2.66
2022-08-21T11:29:22.413Z,2.66
2022-08-21T11:30:23.198Z,2.62
2022-08-21T11:31:24.102Z,2.62
2022-08-21T11:32:24.680Z,2.62
2022-08-21T11:33:24.595Z,2.58
2022-08-21T11:34:25.542Z,2.58
2022-08-21T11:35:25.656Z,2.73
2022-08-21T11:36:25.618Z,2.69
2022-08-21T11:37:27.587Z,2.69
2022-08-21T11:38:27.014Z,2.69
2022-08-21T11:38:35.775Z,2.69
2022-08-21T11:39:36.526Z,2.73
2022-08-21T11:40:36.642Z,2.66
2022-08-21T11:41:37.712Z,2.73
2022-08-21T11:42:38.624Z,2.66
2022-08-21T11:43:38.594Z,2.62
2022-08-21T11:44:40.075Z,1.77
2022-08-21T11:45:39.903Z,1.98
2022-08-21T11:46:41.078Z,1.87
2022-08-21T11:47:41.602Z,2.19
2022-08-21T11:48:43.522Z,2.16
2022-08-21T11:49:41.750Z,1.12
2022-08-21T11:50:43.652Z,0.88
2022-08-21T11:51:42.934Z,0.84
2022-08-21T11:52:42.711Z,0.84
2022-08-21T11:53:43.854Z,1.02
2022-08-21T11:54:42.835Z,0.98
2022-08-21T11:55:44.288Z,1.94
2022-08-21T11:56:43.826Z,2.16
2022-08-21T11:57:43.858Z,2.16
2022-08-21T11:58:45.827Z,2.12
2022-08-21T11:59:46.179Z,2.16
2022-08-21T12:00:46.256Z,1.98
2022-08-21T12:00:54.870Z,2.23
2022-08-21T12:01:55.487Z,1.94
2022-08-21T12:02:55.974Z,1.84
2022-08-21T12:03:57.747Z,1.87
2022-08-21T12:04:58.575Z,2.26
2022-08-21T12:05:57.956Z,1.94
2022-08-21T12:06:58.173Z,2.19
2022-08-21T12:08:00.976Z,2.23
2022-08-21T12:08:59.344Z,2.23
2022-08-21T12:10:01.242Z,2.19
2022-08-21T12:11:01.747Z,1.98
2022-08-21T12:12:01.660Z,2.12
2022-08-21T12:13:02.616Z,2.05
2022-08-21T12:14:04.405Z,2.09
2022-08-21T12:15:04.516Z,1.84
2022-08-21T12:16:05.344Z,2.09
2022-08-21T12:17:05.207Z,2.09
2022-08-21T12:18:05.626Z,1.80
2022-08-21T12:19:07.126Z,2.12
2022-08-21T12:19:16.344Z,2.12
2022-08-21T12:20:15.861Z,2.05
2022-08-21T12:21:17.816Z,1.84
2022-08-21T12:22:17.968Z,1.98
2022-08-21T12:23:18.039Z,2.01
2022-08-21T12:24:18.815Z,1.87
2022-08-21T12:25:21.725Z,2.12
2022-08-21T12:26:19.583Z,2.16
2022-08-21T12:27:20.837Z,2.16
2022-08-21T12:28:21.491Z,2.16
2022-08-21T12:29:22.499Z,2.12
2022-08-21T12:30:27.298Z,2.12
2022-08-21T12:31:22.293Z,2.09
2022-08-21T12:32:22.693Z,2.09
2022-08-21T12:33:22.919Z,2.09
2022-08-21T12:34:24.839Z,2.05
2022-08-21T12:35:25.610Z,2.05
2022-08-21T12:36:24.454Z,2.05
2022-08-21T12:37:25.666Z,2.05
2022-08-21T12:38:26.671Z,2.19
2022-08-21T12:39:27.323Z,2.01
2022-08-21T12:39:40.123Z,2.05
2022-08-21T12:40:40.933Z,1.87
2022-08-21T12:41:42.770Z,1.87
2022-08-21T12:42:42.053Z,2.01
2022-08-21T12:43:46.102Z,2.05
2022-08-21T12:44:43.227Z,2.09
2022-08-21T12:45:43.400Z,2.09
2022-08-21T12:46:44.155Z,2.09
2022-08-21T12:47:44.170Z,2.09
2022-08-21T12:48:46.090Z,2.12
2022-08-21T12:49:46.274Z,2.12
2022-08-21T12:50:48.884Z,2.01
2022-08-21T12:51:47.607Z,2.12
2022-08-21T12:52:46.664Z,2.16
2022-08-21T12:53:47.383Z,2.19
2022-08-21T12:54:49.230Z,2.26
2022-08-21T12:55:49.958Z,2.09
2022-08-21T12:56:49.878Z,2.12
2022-08-21T12:57:50.645Z,2.05
2022-08-21T12:58:51.276Z,2.09
2022-08-21T12:59:53.099Z,2.19
2022-08-21T13:00:53.080Z,2.16
2022-08-21T13:01:54.078Z,2.01
2022-08-21T13:02:55.848Z,2.09
2022-08-21T13:04:04.490Z,2.19
2022-08-21T13:04:55.960Z,1.77
2022-08-21T13:06:01.802Z,1.84
2022-08-21T13:06:57.205Z,1.41
2022-08-21T13:07:09.216Z,1.77
2022-08-21T13:08:07.070Z,1.77
2022-08-21T13:09:07.246Z,1.55
2022-08-21T13:10:08.077Z,1.94
2022-08-21T13:11:14.907Z,1.55
2022-08-21T13:12:08.832Z,1.73
2022-08-21T13:13:12.804Z,1.66
2022-08-21T13:14:09.816Z,2.12
2022-08-21T13:15:10.609Z,2.16
2022-08-21T13:16:11.281Z,2.30
2022-08-21T13:17:11.766Z,2.23
2022-08-21T13:18:12.628Z,2.30
2022-08-21T13:19:13.048Z,2.30
2022-08-21T13:20:13.089Z,2.37
2022-08-21T13:21:15.046Z,2.12
2022-08-21T13:22:33.342Z,2.41
2022-08-21T13:23:15.732Z,2.58
2022-08-21T13:23:28.529Z,2.48
2022-08-21T13:24:45.656Z,2.62
2022-08-21T13:25:29.487Z,2.66
2022-08-21T13:26:30.090Z,2.48
2022-08-21T13:27:30.272Z,2.51
2022-08-21T13:28:32.153Z,2.51
2022-08-21T13:29:31.998Z,2.55
2022-08-21T13:30:33.946Z,2.55
2022-08-21T13:31:33.778Z,2.51
2022-08-21T13:32:35.626Z,2.51
2022-08-21T13:33:37.490Z,2.69
2022-08-21T13:34:36.179Z,1.94
2022-08-21T13:35:38.062Z,0.66
2022-08-21T13:36:38.346Z,0.73
2022-08-21T13:37:39.233Z,0.88
2022-08-21T13:38:39.101Z,0.95
2022-08-21T13:39:00.433Z,1.02
2022-08-21T13:40:02.476Z,2.55
2022-08-21T13:41:00.327Z,2.58
2022-08-21T13:42:00.399Z,2.58
2022-08-21T13:43:00.814Z,2.51
2022-08-21T13:44:01.516Z,2.48
2022-08-21T13:45:03.319Z,2.55
2022-08-21T13:46:04.217Z,2.01
2022-08-21T13:47:03.338Z,1.87
2022-08-21T13:48:06.479Z,2.26
2022-08-21T13:49:04.195Z,2.51
2022-08-21T13:50:06.086Z,2.55
2022-08-21T13:51:05.865Z,0.98
2022-08-21T13:51:14.496Z,1.20
2022-08-21T13:52:14.755Z,2.73
2022-08-21T13:53:16.679Z,2.66
2022-08-21T13:54:17.636Z,2.58
2022-08-21T13:55:17.848Z,1.62
2022-08-21T13:56:18.011Z,2.51
2022-08-21T13:57:17.961Z,2.51
2022-08-21T13:58:18.959Z,2.58
2022-08-21T13:59:19.282Z,2.16
2022-08-21T14:00:20.034Z,2.30
2022-08-21T14:01:20.182Z,2.58
2022-08-21T14:02:19.558Z,2.30
2022-08-21T14:03:19.699Z,2.51
2022-08-21T14:04:20.184Z,2.30
2022-08-21T14:05:22.151Z,0.52
2022-08-21T14:06:23.088Z,0.55
2022-08-21T14:07:23.329Z,0.55
2022-08-21T14:08:29.967Z,0.59
2022-08-21T14:09:23.455Z,0.66
2022-08-21T14:10:26.014Z,0.66
2022-08-21T14:11:24.853Z,0.66
2022-08-21T14:12:26.798Z,0.66
2022-08-21T14:13:26.693Z,0.73
2022-08-21T14:14:27.580Z,1.44
2022-08-21T14:15:28.486Z,2.30
2022-08-21T14:15:41.471Z,2.12
2022-08-21T14:16:41.373Z,0.70
2022-08-21T14:17:42.673Z,1.41
2022-08-21T14:18:42.527Z,1.66
2022-08-21T14:19:44.306Z,2.12
2022-08-21T14:20:43.770Z,0.77
2022-08-21T14:21:45.616Z,0.52
2022-08-21T14:22:44.795Z,0.48
2022-08-21T14:23:45.625Z,0.59
2022-08-21T14:24:46.331Z,0.59
2022-08-21T14:25:47.217Z,0.45
2022-08-21T14:26:49.082Z,0.55
2022-08-21T14:27:49.013Z,0.55
2022-08-21T14:28:49.865Z,0.48
2022-08-21T14:29:51.727Z,0.70
2022-08-21T14:30:53.879Z,0.48
2022-08-21T14:31:52.401Z,0.98
2022-08-21T14:32:53.300Z,0.59
2022-08-21T14:33:22.555Z,0.70
2022-08-21T14:34:20.394Z,0.59
2022-08-21T14:35:24.557Z,0.55
2022-08-21T14:36:21.822Z,0.55
2022-08-21T14:37:22.197Z,0.45
2022-08-21T14:38:23.030Z,0.59
2022-08-21T14:39:25.718Z,0.59
2022-08-21T14:40:25.597Z,0.52
2022-08-21T14:41:25.430Z,0.48
2022-08-21T14:42:25.981Z,0.48
2022-08-21T14:43:25.954Z,0.59
2022-08-21T14:44:26.808Z,0.70
2022-08-21T14:45:27.836Z,0.59
2022-08-21T14:46:28.470Z,0.95
2022-08-21T14:47:29.363Z,1.44
2022-08-21T14:48:30.208Z,0.70
2022-08-21T14:49:30.986Z,0.73
2022-08-21T14:49:45.905Z,0.84
2022-08-21T14:50:46.209Z,0.66
2022-08-21T14:51:54.131Z,0.48
2022-08-21T14:52:48.026Z,0.66
2022-08-21T14:53:48.885Z,1.12
2022-08-21T14:54:49.185Z,0.66
2022-08-21T14:55:50.991Z,0.70
2022-08-21T14:56:51.881Z,0.59
2022-08-21T14:57:51.166Z,0.88
2022-08-21T14:58:51.986Z,1.37
2022-08-21T14:59:52.980Z,1.09
2022-08-21T15:00:53.829Z,0.59
2022-08-21T15:01:54.783Z,0.41
2022-08-21T15:02:55.586Z,0.91
2022-08-21T15:03:11.540Z,0.80
2022-08-21T15:04:11.382Z,0.55
2022-08-21T15:05:12.407Z,0.48
2022-08-21T15:06:13.206Z,0.48
2022-08-21T15:07:14.161Z,0.48
2022-08-21T15:08:14.955Z,0.52
2022-08-21T15:09:15.784Z,0.84
2022-08-21T15:10:16.775Z,0.66
2022-08-21T15:11:42.465Z,0.77
2022-08-21T15:12:18.457Z,1.09
2022-08-21T15:13:20.404Z,0.70
2022-08-21T15:13:37.133Z,0.55
2022-08-21T15:14:35.950Z,1.09
2022-08-21T15:15:37.078Z,1.23
2022-08-21T15:16:36.915Z,1.27
2022-08-21T15:17:37.206Z,1.27
2022-08-21T15:18:38.466Z,0.45
2022-08-21T15:19:37.901Z,0.59
2022-08-21T15:20:38.717Z,0.55
2022-08-21T15:21:40.206Z,0.55
2022-08-21T15:22:39.998Z,0.73
2022-08-21T15:23:43.768Z,1.30
2022-08-21T15:24:42.700Z,1.20
2022-08-21T15:25:42.542Z,0.95
2022-08-21T15:26:43.035Z,0.91
2022-08-21T15:27:43.910Z,1.16
2022-08-21T15:27:57.850Z,0.98
2022-08-21T15:28:58.988Z,1.20
2022-08-21T15:29:58.786Z,0.95
2022-08-21T15:31:00.626Z,0.95
2022-08-21T15:32:01.445Z,1.02
2022-08-21T15:33:02.323Z,0.48
2022-08-21T15:34:02.184Z,0.48
2022-08-21T15:35:04.034Z,0.59
2022-08-21T15:36:03.123Z,0.55
2022-08-21T15:36:16.167Z,0.98
2022-08-21T15:37:15.046Z,1.12
2022-08-21T15:38:17.980Z,1.27
2022-08-21T15:39:17.833Z,1.20
2022-08-21T15:40:17.836Z,1.02
2022-08-21T15:41:18.893Z,0.95
2022-08-21T15:42:19.136Z,0.84
2022-08-21T15:43:19.035Z,0.88
2022-08-21T15:44:19.083Z,1.12
2022-08-21T15:45:19.932Z,0.73
2022-08-21T15:46:20.788Z,0.66
2022-08-21T15:47:21.663Z,0.73
2022-08-21T15:48:22.508Z,0.77
2022-08-21T15:49:24.502Z,1.02
2022-08-21T15:50:24.312Z,1.02
2022-08-21T15:51:27.479Z,1.09
2022-08-21T15:52:25.302Z,1.02
2022-08-21T15:53:26.211Z,1.23
2022-08-21T15:53:51.853Z,0.95
2022-08-21T15:54:52.729Z,1.12
2022-08-21T15:55:54.416Z,0.95
2022-08-21T15:56:53.579Z,0.95
2022-08-21T15:57:57.284Z,0.91
2022-08-21T15:58:54.544Z,0.84
2022-08-21T15:59:55.507Z,0.80
2022-08-21T16:00:55.710Z,0.59
2022-08-21T16:01:57.660Z,0.45
2022-08-21T16:02:58.619Z,0.55
2022-08-21T16:03:57.622Z,0.59
2022-08-21T16:04:58.504Z,0.77
2022-08-21T16:06:00.314Z,0.77
2022-08-21T16:06:37.512Z,0.77
2022-08-21T16:07:22.252Z,0.73
2022-08-21T16:08:22.359Z,0.66
2022-08-21T16:09:23.367Z,0.66
2022-08-21T16:10:23.193Z,0.48
2022-08-21T16:11:24.016Z,0.55
2022-08-21T16:12:24.453Z,0.59
2022-08-21T16:13:26.067Z,0.41
2022-08-21T16:14:25.933Z,0.45
2022-08-21T16:15:25.976Z,0.45
2022-08-21T16:16:26.916Z,0.45
2022-08-21T16:17:27.051Z,0.45
2022-08-21T16:17:42.951Z,0.55
2022-08-21T16:18:43.825Z,0.45
2022-08-21T16:19:44.650Z,0.45
2022-08-21T16:20:45.475Z,0.41
2022-08-21T16:21:47.290Z,0.31
2022-08-21T16:22:47.197Z,0.45
2022-08-21T16:23:49.758Z,0.52
2022-08-21T16:24:49.216Z,0.45
2022-08-21T16:25:49.842Z,0.41
2022-08-21T16:26:57.613Z,0.45
2022-08-21T16:27:50.699Z,0.41
2022-08-21T16:28:51.501Z,0.34
2022-08-21T16:29:52.320Z,0.34
2022-08-21T16:30:02.537Z,0.45
2022-08-21T16:31:03.206Z,0.41
2022-08-21T16:32:03.977Z,0.41
2022-08-21T16:33:05.861Z,0.41
2022-08-21T16:34:05.659Z,0.41
2022-08-21T16:35:07.554Z,0.41
2022-08-21T16:36:07.665Z,0.38
2022-08-21T16:37:07.500Z,0.31
2022-08-21T16:38:08.383Z,0.31
2022-08-21T16:39:09.351Z,0.31
2022-08-21T16:40:11.291Z,0.31
2022-08-21T16:41:11.127Z,0.45
2022-08-21T16:42:11.429Z,0.41
2022-08-21T16:43:11.848Z,0.38
2022-08-21T16:43:26.223Z,0.41
2022-08-21T16:44:27.075Z,0.38
2022-08-21T16:45:32.595Z,0.38
2022-08-21T16:46:28.272Z,0.38
2022-08-21T16:47:29.211Z,0.38
2022-08-21T16:48:31.045Z,0.38
2022-08-21T16:49:30.192Z,0.38
2022-08-21T16:50:32.048Z,0.38
2022-08-21T16:51:32.186Z,0.38
2022-08-21T16:52:32.056Z,0.34
2022-08-21T16:53:32.992Z,0.34
2022-08-21T16:54:21.539Z,0.34
2022-08-21T16:55:21.975Z,0.34
2022-08-21T16:56:22.579Z,0.34
2022-08-21T16:57:25.489Z,0.27
2022-08-21T16:58:24.304Z,0.23
2022-08-21T16:59:25.957Z,0.34
2022-08-21T17:00:25.769Z,0.34
2022-08-21T17:01:26.707Z,0.27
2022-08-21T17:02:27.517Z,0.34
2022-08-21T17:03:28.238Z,0.27
2022-08-21T17:04:58.141Z,0.23
2022-08-21T17:05:56.034Z,0.34
2022-08-21T17:06:55.902Z,0.38
2022-08-21T17:07:56.524Z,0.38
2022-08-21T17:08:57.382Z,0.34
2022-08-21T17:09:58.365Z,0.31
2022-08-21T17:10:59.168Z,0.23
2022-08-21T17:11:59.322Z,0.34
2022-08-21T17:13:03.494Z,0.34
2022-08-21T17:14:01.039Z,0.34
2022-08-21T17:16:02.032Z,0.34
2022-08-21T17:17:02.861Z,0.34
2022-08-21T17:18:04.276Z,0.38
2022-08-21T17:19:03.975Z,0.34
2022-08-21T17:20:04.804Z,0.34
2022-08-21T17:21:06.635Z,0.31
2022-08-21T17:22:06.514Z,0.34
2022-08-21T17:23:08.369Z,0.34
2022-08-21T17:24:10.343Z,0.34
2022-08-21T17:25:09.065Z,0.34
2022-08-21T17:26:11.604Z,0.34
2022-08-21T17:27:10.722Z,0.27
2022-08-21T17:28:13.713Z,0.34
2022-08-21T17:28:32.106Z,0.34
2022-08-21T17:29:34.052Z,0.38
2022-08-21T17:30:33.952Z,0.27
2022-08-21T17:31:34.809Z,0.16
2022-08-21T17:32:35.969Z,0.34
2022-08-21T17:33:35.812Z,0.31
2022-08-21T17:34:36.593Z,0.23
2022-08-21T17:35:37.420Z,0.38
2022-08-21T17:36:39.272Z,0.34
2022-08-21T17:37:40.114Z,0.38
2022-08-21T17:37:52.386Z,0.38
2022-08-21T17:38:54.289Z,0.34
2022-08-21T17:39:55.197Z,0.23
2022-08-21T17:40:54.989Z,0.34
2022-08-21T17:41:58.094Z,0.23
2022-08-21T17:42:56.327Z,0.27
2022-08-21T17:43:58.113Z,0.23
2022-08-21T17:44:58.965Z,0.23
2022-08-21T17:45:59.801Z,0.31
2022-08-21T17:46:58.919Z,0.16
2022-08-21T17:47:09.578Z,0.34
2022-08-21T17:48:09.609Z,0.27
2022-08-21T17:49:09.562Z,0.16
2022-08-21T17:50:11.334Z,0.27
2022-08-21T17:51:12.162Z,0.16
2022-08-21T17:52:13.055Z,0.27
2022-08-21T17:53:12.980Z,0.27
2022-08-21T17:54:14.184Z,0.23
2022-08-21T17:55:15.104Z,0.27
